createdAt,value
2023-03-13T00:01:39.359Z,33.95
2023-03-13T00:04:06.188Z,32.00
2023-03-13T00:06:35.382Z,38.00
2023-03-13T00:09:05.267Z,32.60
2023-03-13T00:11:32.576Z,29.00
2023-03-13T00:14:04.468Z,37.40
2023-03-13T00:16:32.180Z,40.42
2023-03-13T00:18:59.210Z,39.88
2023-03-13T00:21:28.281Z,38.20
2023-03-13T00:23:55.805Z,33.17
2023-03-13T00:26:25.091Z,35.70
2023-03-13T00:28:53.153Z,30.13
2023-03-13T00:31:26.009Z,35.35
2023-03-13T00:33:57.226Z,37.92
2023-03-13T00:36:27.278Z,35.90
2023-03-13T00:38:55.243Z,33.03
2023-03-13T00:41:24.738Z,37.97
2023-03-13T00:43:51.926Z,39.08
2023-03-13T00:46:21.448Z,37.05
2023-03-13T00:48:49.100Z,34.60
2023-03-13T00:51:17.435Z,29.90
2023-03-13T00:53:44.757Z,33.28
2023-03-13T00:56:13.911Z,33.10
2023-03-13T00:58:42.887Z,38.65
2023-03-13T01:01:10.878Z,31.67
2023-03-13T01:03:39.415Z,32.60
2023-03-13T01:06:08.778Z,30.08
2023-03-13T01:08:35.925Z,31.25
2023-03-13T01:11:06.074Z,32.25
2023-03-13T01:13:33.401Z,35.70
2023-03-13T01:16:06.134Z,36.72
2023-03-13T01:18:34.612Z,33.63
2023-03-13T01:21:02.086Z,37.17
2023-03-13T01:23:31.906Z,37.35
2023-03-13T01:25:58.741Z,34.20
2023-03-13T01:28:26.606Z,34.65
2023-03-13T01:30:53.605Z,32.53
2023-03-13T01:33:20.236Z,40.35
2023-03-13T01:35:46.992Z,36.20
2023-03-13T01:38:13.898Z,40.92
2023-03-13T01:40:44.476Z,39.45
2023-03-13T01:43:26.633Z,46.08
2023-03-13T01:46:02.877Z,41.72
2023-03-13T01:48:42.279Z,45.13
2023-03-13T01:51:18.135Z,41.65
2023-03-13T01:53:49.484Z,33.40
2023-03-13T01:56:22.481Z,34.88
2023-03-13T01:58:52.126Z,37.28
2023-03-13T02:01:20.272Z,33.80
2023-03-13T02:03:49.045Z,35.13
2023-03-13T02:06:16.774Z,35.60
2023-03-13T02:08:51.736Z,42.58
2023-03-13T02:11:31.869Z,51.17
2023-03-13T02:13:59.207Z,54.67
2023-03-13T02:16:26.953Z,53.08
2023-03-13T02:18:53.610Z,54.80
2023-03-13T02:21:45.511Z,58.53
2023-03-13T02:24:16.885Z,43.22
2023-03-13T02:26:43.539Z,47.58
2023-03-13T02:29:18.218Z,52.15
2023-03-13T02:31:47.485Z,48.38
2023-03-13T02:34:21.716Z,48.42
2023-03-13T02:36:49.430Z,53.45
2023-03-13T02:39:20.335Z,46.88
2023-03-13T02:41:47.426Z,53.80
2023-03-13T02:44:13.986Z,47.92
2023-03-13T02:46:46.255Z,49.97
2023-03-13T02:49:23.685Z,53.17
2023-03-13T02:51:51.650Z,55.22
2023-03-13T02:54:23.307Z,52.05
2023-03-13T02:56:55.476Z,51.25
2023-03-13T02:59:22.166Z,54.28
2023-03-13T03:01:52.710Z,45.30
2023-03-13T03:04:21.516Z,44.97
2023-03-13T03:06:49.135Z,54.60
2023-03-13T03:09:16.652Z,53.10
2023-03-13T03:11:43.234Z,59.40
2023-03-13T03:14:11.382Z,55.88
2023-03-13T03:16:38.471Z,51.05
2023-03-13T03:19:06.671Z,50.97
2023-03-13T03:21:34.197Z,50.80
2023-03-13T03:24:01.133Z,54.50
2023-03-13T03:26:27.764Z,58.38
2023-03-13T03:28:54.346Z,50.15
2023-03-13T03:31:21.046Z,47.97
2023-03-13T03:33:47.691Z,45.08
2023-03-13T03:36:17.532Z,58.10
2023-03-13T03:38:45.356Z,50.90
2023-03-13T03:41:14.215Z,55.75
2023-03-13T03:43:41.524Z,48.50
2023-03-13T03:46:09.359Z,53.53
2023-03-13T03:48:36.821Z,57.97
2023-03-13T03:51:03.888Z,54.10
2023-03-13T03:53:30.833Z,61.78
2023-03-13T03:55:57.419Z,57.35
2023-03-13T03:58:24.359Z,65.78
2023-03-13T04:00:50.933Z,69.20
2023-03-13T04:03:17.594Z,64.55
2023-03-13T04:05:44.505Z,80.40
2023-03-13T04:08:11.127Z,68.30
2023-03-13T04:10:37.792Z,63.72
2023-03-13T04:13:04.441Z,61.33
2023-03-13T04:15:34.300Z,61.72
2023-03-13T04:18:00.889Z,56.05
2023-03-13T04:20:28.876Z,58.83
2023-03-13T04:22:55.536Z,63.65
2023-03-13T04:25:22.103Z,59.03
2023-03-13T04:27:48.664Z,62.97
2023-03-13T04:30:18.311Z,63.17
2023-03-13T04:32:45.750Z,66.45
2023-03-13T04:35:12.444Z,63.92
2023-03-13T04:37:39.041Z,56.58
2023-03-13T04:40:07.075Z,53.70
2023-03-13T04:42:33.668Z,55.80
2023-03-13T04:45:00.286Z,59.65
2023-03-13T04:47:26.885Z,67.03
2023-03-13T04:49:53.452Z,58.72
2023-03-13T04:52:20.171Z,65.35
2023-03-13T04:54:46.790Z,65.53
2023-03-13T04:57:13.416Z,64.93
2023-03-13T04:59:40.101Z,68.45
2023-03-13T05:02:06.862Z,72.03
2023-03-13T05:04:33.526Z,61.30
2023-03-13T05:07:00.178Z,66.70
2023-03-13T05:09:26.896Z,63.88
2023-03-13T05:11:53.497Z,66.50
2023-03-13T05:14:20.206Z,76.28
2023-03-13T05:16:47.814Z,59.97
2023-03-13T05:19:14.481Z,63.35
2023-03-13T05:21:41.421Z,63.08
2023-03-13T05:24:11.278Z,66.00
2023-03-13T05:26:37.893Z,79.80
2023-03-13T05:29:04.533Z,69.15
2023-03-13T05:31:31.153Z,69.85
2023-03-13T05:33:57.820Z,64.65
2023-03-13T05:36:24.462Z,65.57
2023-03-13T05:38:51.272Z,62.70
2023-03-13T05:41:17.909Z,63.35
2023-03-13T05:43:44.489Z,71.30
2023-03-13T05:46:11.144Z,55.78
2023-03-13T05:48:37.774Z,67.63
2023-03-13T05:51:04.509Z,79.38
2023-03-13T05:53:31.115Z,67.85
2023-03-13T05:55:57.787Z,84.63
2023-03-13T05:58:24.376Z,59.38
2023-03-13T06:00:50.953Z,65.13
2023-03-13T06:03:17.538Z,62.88
2023-03-13T06:05:44.138Z,80.38
2023-03-13T06:08:10.765Z,68.68
2023-03-13T06:10:37.371Z,60.78
2023-03-13T06:13:18.761Z,71.22
2023-03-13T06:15:55.444Z,67.15
2023-03-13T06:18:23.149Z,80.25
2023-03-13T06:20:55.726Z,70.63
2023-03-13T06:23:22.292Z,70.70
2023-03-13T06:25:48.941Z,74.18
2023-03-13T06:28:16.848Z,71.30
2023-03-13T06:30:43.564Z,72.90
2023-03-13T06:33:10.176Z,76.88
2023-03-13T06:35:54.794Z,74.85
2023-03-13T06:38:22.968Z,80.32
2023-03-13T06:40:49.539Z,86.15
2023-03-13T06:43:16.192Z,70.20
2023-03-13T06:45:42.951Z,84.43
2023-03-13T06:48:09.524Z,71.57
2023-03-13T06:50:39.176Z,68.63
2023-03-13T06:53:05.877Z,72.80
2023-03-13T06:55:32.485Z,76.47
2023-03-13T06:57:59.527Z,72.72
2023-03-13T07:00:26.175Z,78.65
2023-03-13T07:02:52.775Z,72.35
2023-03-13T07:05:19.361Z,77.13
2023-03-13T07:07:45.970Z,78.90
2023-03-13T07:10:12.597Z,81.63
2023-03-13T07:12:39.218Z,74.80
2023-03-13T07:15:06.764Z,69.60
2023-03-13T07:17:33.469Z,68.95
2023-03-13T07:20:00.219Z,64.68
2023-03-13T07:22:27.018Z,68.97
2023-03-13T07:24:53.648Z,67.50
2023-03-13T07:27:21.357Z,75.40
2023-03-13T07:29:48.311Z,69.78
2023-03-13T07:32:15.090Z,68.60
2023-03-13T07:34:44.595Z,66.75
2023-03-13T07:37:13.158Z,63.28
2023-03-13T07:39:39.924Z,58.72
2023-03-13T07:42:06.666Z,61.70
2023-03-13T07:44:33.279Z,55.35
2023-03-13T07:47:00.967Z,61.33
2023-03-13T07:49:27.638Z,70.30
2023-03-13T07:51:54.512Z,63.50
2023-03-13T07:54:21.123Z,69.45
2023-03-13T07:56:47.698Z,64.53
2023-03-13T07:59:14.315Z,65.05
2023-03-13T08:01:40.921Z,67.18
2023-03-13T08:04:10.011Z,69.22
2023-03-13T08:06:36.915Z,73.22
2023-03-13T08:09:04.383Z,72.90
2023-03-13T08:11:31.013Z,76.72
2023-03-13T08:13:58.011Z,63.13
2023-03-13T08:16:31.722Z,77.22
2023-03-13T08:18:59.330Z,77.45
2023-03-13T08:21:28.816Z,72.93
2023-03-13T08:23:57.981Z,76.72
2023-03-13T08:26:26.961Z,74.90
2023-03-13T08:28:56.620Z,79.93
2023-03-13T08:31:26.286Z,84.88
2023-03-13T08:33:53.355Z,82.00
2023-03-13T08:36:24.969Z,72.55
2023-03-13T08:38:53.531Z,80.45
2023-03-13T08:41:23.702Z,71.65
2023-03-13T08:43:53.057Z,76.30
2023-03-13T08:46:20.085Z,86.53
2023-03-13T08:48:51.952Z,73.95
2023-03-13T08:51:20.311Z,83.72
2023-03-13T08:53:47.200Z,79.00
2023-03-13T08:56:16.538Z,77.13
2023-03-13T08:58:43.633Z,91.07
2023-03-13T09:01:13.137Z,82.70
2023-03-13T09:03:41.318Z,74.18
2023-03-13T09:06:09.024Z,61.65
2023-03-13T09:08:36.238Z,64.85
2023-03-13T09:11:06.270Z,78.38
2023-03-13T09:13:35.569Z,58.00
2023-03-13T09:16:06.643Z,58.85
2023-03-13T09:18:33.968Z,50.35
2023-03-13T09:21:01.234Z,58.30
2023-03-13T09:23:28.088Z,54.47
2023-03-13T09:25:57.201Z,50.38
2023-03-13T09:28:25.287Z,53.45
2023-03-13T09:30:53.170Z,55.33
2023-03-13T09:33:21.464Z,52.03
2023-03-13T09:35:50.880Z,41.65
2023-03-13T09:38:19.235Z,45.03
2023-03-13T09:40:59.706Z,53.30
2023-03-13T09:43:47.065Z,43.60
2023-03-13T09:46:23.538Z,38.33
2023-03-13T09:48:56.020Z,43.28
2023-03-13T09:51:29.391Z,34.35
2023-03-13T09:54:03.894Z,34.75
2023-03-13T09:56:39.170Z,44.58
2023-03-13T09:59:16.846Z,34.35
2023-03-13T10:01:44.451Z,42.03
2023-03-13T10:04:29.628Z,41.58
2023-03-13T10:06:56.796Z,47.22
2023-03-13T10:09:29.718Z,50.75
2023-03-13T10:12:04.624Z,46.78
2023-03-13T10:14:39.465Z,42.60
2023-03-13T10:17:16.071Z,44.35
2023-03-13T10:19:43.611Z,39.38
2023-03-13T10:22:18.592Z,34.10
2023-03-13T10:24:52.108Z,39.42
2023-03-13T10:27:18.882Z,35.70
2023-03-13T10:29:45.617Z,45.05
2023-03-13T10:32:15.038Z,35.35
2023-03-13T10:35:00.999Z,46.38
2023-03-13T10:37:30.244Z,37.43
2023-03-13T10:40:12.224Z,43.67
2023-03-13T10:42:44.252Z,39.88
2023-03-13T10:45:17.240Z,32.08
2023-03-13T10:47:43.913Z,34.38
2023-03-13T10:50:20.983Z,33.90
2023-03-13T10:52:48.927Z,26.90
2023-03-13T10:55:19.939Z,31.88
2023-03-13T10:58:03.193Z,31.13
2023-03-13T11:00:39.561Z,26.92
2023-03-13T11:05:40.452Z,33.17
2023-03-13T11:08:18.942Z,24.13
2023-03-13T11:11:00.920Z,24.83
2023-03-13T11:13:37.366Z,22.52
2023-03-13T11:16:26.284Z,24.90
2023-03-13T11:19:08.206Z,23.75
2023-03-13T11:21:43.678Z,23.40
2023-03-13T11:24:39.399Z,20.92
2023-03-13T11:27:06.713Z,22.63
2023-03-13T11:29:58.547Z,27.05
2023-03-13T11:32:35.413Z,24.67
2023-03-13T11:35:12.280Z,25.63
2023-03-13T11:37:41.454Z,22.98
2023-03-13T11:40:24.213Z,30.95
2023-03-13T11:42:50.782Z,27.48
2023-03-13T11:45:48.756Z,24.58
2023-03-13T11:48:24.345Z,27.55
2023-03-13T11:51:14.135Z,18.92
2023-03-13T11:53:57.018Z,19.05
2023-03-13T11:56:43.609Z,20.40
2023-03-13T11:59:32.121Z,22.35
2023-03-13T12:02:10.532Z,18.77
2023-03-13T12:04:43.863Z,18.58
2023-03-13T12:07:30.083Z,23.20
2023-03-13T12:10:02.227Z,20.83
2023-03-13T12:12:40.591Z,14.93
2023-03-13T12:15:31.491Z,15.27
2023-03-13T12:18:01.319Z,13.88
2023-03-13T12:20:39.817Z,13.60
2023-03-13T12:23:36.031Z,14.98
2023-03-13T12:26:19.538Z,12.43
2023-03-13T12:29:09.094Z,13.63
2023-03-13T12:31:47.537Z,12.05
2023-03-13T12:34:22.360Z,15.88
2023-03-13T12:36:54.271Z,14.23
2023-03-13T12:39:50.080Z,11.40
2023-03-13T12:42:44.840Z,13.70
2023-03-13T12:45:18.752Z,17.42
2023-03-13T12:48:06.334Z,14.85
2023-03-13T12:51:03.463Z,17.33
2023-03-13T12:54:00.678Z,22.27
2023-03-13T12:59:18.825Z,16.98
2023-03-13T13:01:50.979Z,16.40
2023-03-13T13:04:24.528Z,17.48
2023-03-13T13:06:55.865Z,21.58
2023-03-13T13:09:26.132Z,20.73
2023-03-13T13:11:55.371Z,17.63
2023-03-13T13:14:21.960Z,22.55
2023-03-13T13:16:56.148Z,15.88
2023-03-13T13:19:23.717Z,22.10
2023-03-13T13:22:20.761Z,12.07
2023-03-13T13:24:53.396Z,22.45
2023-03-13T13:27:38.568Z,19.45
2023-03-13T13:30:20.430Z,13.43
2023-03-13T13:32:52.152Z,13.18
2023-03-13T13:35:35.716Z,17.58
2023-03-13T13:38:17.542Z,37.75
2023-03-13T13:40:59.611Z,22.13
2023-03-13T13:43:31.225Z,25.95
2023-03-13T13:46:09.098Z,23.60
2023-03-13T13:48:39.853Z,23.45
2023-03-13T13:51:26.139Z,23.30
2023-03-13T13:53:56.450Z,33.58
2023-03-13T13:56:41.211Z,32.00
2023-03-13T13:59:24.877Z,33.17
2023-03-13T14:02:09.793Z,25.55
2023-03-13T14:04:45.046Z,25.08
2023-03-13T14:07:19.892Z,28.55
2023-03-13T14:10:18.018Z,21.52
2023-03-13T14:12:51.360Z,32.17
2023-03-13T14:15:20.750Z,28.30
2023-03-13T14:17:50.097Z,26.60
2023-03-13T14:20:37.494Z,30.33
2023-03-13T14:23:07.566Z,27.70
2023-03-13T14:25:50.370Z,38.25
2023-03-13T14:28:21.517Z,38.83
2023-03-13T14:30:50.342Z,29.35
2023-03-13T14:33:17.858Z,30.85
2023-03-13T14:35:45.020Z,30.92
2023-03-13T14:38:27.894Z,28.50
2023-03-13T14:40:56.563Z,30.25
2023-03-13T14:43:35.462Z,27.75
2023-03-13T14:46:15.523Z,32.92
2023-03-13T14:48:42.358Z,29.70
2023-03-13T14:51:18.531Z,30.63
2023-03-13T14:54:01.708Z,29.05
2023-03-13T14:56:35.707Z,30.40
2023-03-13T14:59:17.912Z,33.17
2023-03-13T15:01:45.330Z,26.77
2023-03-13T15:04:12.438Z,32.65
2023-03-13T15:06:39.157Z,23.40
2023-03-13T15:09:22.437Z,29.95
2023-03-13T15:11:54.963Z,28.10
2023-03-13T15:14:34.261Z,32.55
2023-03-13T15:17:00.893Z,32.30
2023-03-13T15:19:27.553Z,30.98
2023-03-13T15:21:54.767Z,27.38
2023-03-13T15:24:21.368Z,22.40
2023-03-13T15:26:49.193Z,30.80
2023-03-13T15:29:18.261Z,25.52
2023-03-13T15:31:45.099Z,24.92
2023-03-13T15:34:14.169Z,25.02
2023-03-13T15:36:42.484Z,29.27
2023-03-13T15:39:15.903Z,23.20
2023-03-13T15:41:42.968Z,24.90
2023-03-13T15:44:09.559Z,21.10
2023-03-13T15:46:36.554Z,25.23
2023-03-13T15:49:03.788Z,24.42
2023-03-13T15:51:30.824Z,25.63
2023-03-13T15:53:57.478Z,26.33
2023-03-13T15:56:24.199Z,26.13
2023-03-13T15:58:51.483Z,24.42
2023-03-13T16:01:18.870Z,23.40
2023-03-13T16:03:45.700Z,25.30
2023-03-13T16:06:16.508Z,20.88
2023-03-13T16:08:43.985Z,24.88
2023-03-13T16:11:14.058Z,19.33
2023-03-13T16:13:40.807Z,13.30
2023-03-13T16:16:29.385Z,6.68
2023-03-13T16:19:04.106Z,9.07
2023-03-13T16:21:33.213Z,11.50
2023-03-13T16:24:00.145Z,9.50
2023-03-13T16:26:30.242Z,6.28
2023-03-13T16:28:58.176Z,9.10
2023-03-13T16:31:28.152Z,8.80
2023-03-13T16:33:56.023Z,4.50
2023-03-13T16:36:25.889Z,7.57
2023-03-13T16:38:52.872Z,3.75
2023-03-13T16:41:21.985Z,7.15
2023-03-13T16:43:49.159Z,5.10
2023-03-13T16:46:17.189Z,3.75
2023-03-13T16:48:44.816Z,7.13
2023-03-13T16:51:17.467Z,5.70
2023-03-13T16:53:46.113Z,4.32
2023-03-13T16:56:33.725Z,4.63
2023-03-13T16:59:02.549Z,7.75
2023-03-13T17:01:30.024Z,6.20
2023-03-13T17:03:58.224Z,9.77
2023-03-13T17:06:27.909Z,13.52
2023-03-13T17:08:56.342Z,8.93
2023-03-13T17:11:23.635Z,11.10
2023-03-13T17:13:52.697Z,11.63
2023-03-13T17:16:24.109Z,17.85
2023-03-13T17:18:53.428Z,17.55
2023-03-13T17:21:23.699Z,16.13
2023-03-13T17:23:51.069Z,18.25
2023-03-13T17:26:23.215Z,20.90
2023-03-13T17:28:55.816Z,12.98
2023-03-13T17:31:24.220Z,18.42
2023-03-13T17:33:51.104Z,22.63
2023-03-13T17:36:22.904Z,27.73
2023-03-13T17:38:52.442Z,24.33
2023-03-13T17:41:22.132Z,20.65
2023-03-13T17:43:48.711Z,19.75
2023-03-13T17:46:20.789Z,14.73
2023-03-13T17:48:49.363Z,17.38
2023-03-13T17:51:19.767Z,12.95
2023-03-13T17:53:47.037Z,13.45
2023-03-13T17:56:16.606Z,14.32
2023-03-13T17:58:43.907Z,15.10
2023-03-13T18:01:13.552Z,11.13
2023-03-13T18:03:41.468Z,19.95
2023-03-13T18:06:17.570Z,12.73
2023-03-13T18:08:44.910Z,6.65
2023-03-13T18:11:12.184Z,8.13
2023-03-13T18:13:39.446Z,7.95
2023-03-13T18:16:30.329Z,6.10
2023-03-13T18:18:57.409Z,5.80
2023-03-13T18:21:24.629Z,5.80
2023-03-13T18:23:53.441Z,6.22
2023-03-13T18:26:21.411Z,13.55
2023-03-13T18:28:48.159Z,5.18
2023-03-13T18:31:14.908Z,9.73
2023-03-13T18:33:41.900Z,6.13
2023-03-13T18:36:18.605Z,10.23
2023-03-13T18:38:46.222Z,5.05
2023-03-13T18:41:15.050Z,8.20
2023-03-13T18:43:42.708Z,10.57
2023-03-13T18:46:16.251Z,5.45
2023-03-13T18:48:42.868Z,11.82
2023-03-13T18:51:13.126Z,9.85
2023-03-13T18:53:39.933Z,5.93
2023-03-13T18:56:15.389Z,6.75
2023-03-13T18:58:42.831Z,7.70
2023-03-13T19:01:13.213Z,9.50
2023-03-13T19:03:40.013Z,8.38
2023-03-13T19:06:18.910Z,8.40
2023-03-13T19:08:47.634Z,6.40
2023-03-13T19:11:17.608Z,6.95
2023-03-13T19:13:44.532Z,3.80
2023-03-13T19:16:18.168Z,9.93
2023-03-13T19:18:46.349Z,3.50
2023-03-13T19:21:19.419Z,8.32
2023-03-13T19:23:46.425Z,6.30
2023-03-13T19:26:17.894Z,11.35
2023-03-13T19:28:44.837Z,6.53
2023-03-13T19:31:11.449Z,7.00
2023-03-13T19:33:38.198Z,7.95
2023-03-13T19:36:10.836Z,6.82
2023-03-13T19:38:39.857Z,7.18
2023-03-13T19:41:08.420Z,5.72
2023-03-13T19:43:35.386Z,4.95
2023-03-13T19:46:02.012Z,4.43
2023-03-13T19:48:28.565Z,7.28
2023-03-13T19:50:55.162Z,4.57
2023-03-13T19:53:21.783Z,3.58
2023-03-13T19:55:48.424Z,6.28
2023-03-13T19:58:15.693Z,6.13
2023-03-13T20:00:42.290Z,4.20
2023-03-13T20:03:08.851Z,3.05
2023-03-13T20:05:35.468Z,4.30
2023-03-13T20:08:02.030Z,7.78
2023-03-13T20:10:28.668Z,7.28
2023-03-13T20:12:55.294Z,2.97
2023-03-13T20:15:21.969Z,4.13
2023-03-13T20:17:48.532Z,2.83
2023-03-13T20:20:16.064Z,5.15
2023-03-13T20:22:42.651Z,2.80
2023-03-13T20:25:09.777Z,4.03
2023-03-13T20:27:37.371Z,3.55
2023-03-13T20:30:04.368Z,4.97
2023-03-13T20:32:31.196Z,2.35
2023-03-13T20:34:57.853Z,5.20
2023-03-13T20:37:24.433Z,4.95
2023-03-13T20:39:51.048Z,5.57
2023-03-13T20:42:17.658Z,4.03
2023-03-13T20:44:45.754Z,5.22
2023-03-13T20:47:12.520Z,4.50
2023-03-13T20:49:41.401Z,11.80
2023-03-13T20:52:08.120Z,12.48
2023-03-13T20:54:34.780Z,5.50
2023-03-13T20:57:02.471Z,9.27
2023-03-13T20:59:29.049Z,6.47
2023-03-13T21:01:55.790Z,5.00
2023-03-13T21:04:22.506Z,5.28
2023-03-13T21:06:50.067Z,7.85
2023-03-13T21:09:16.976Z,10.55
2023-03-13T21:11:44.526Z,8.23
2023-03-13T21:14:11.171Z,8.95
2023-03-13T21:16:37.900Z,6.15
2023-03-13T21:19:04.553Z,12.65
2023-03-13T21:21:31.175Z,6.88
2023-03-13T21:23:57.789Z,8.65
2023-03-13T21:26:24.497Z,6.05
2023-03-13T21:28:52.981Z,9.13
2023-03-13T21:31:23.148Z,9.90
2023-03-13T21:33:50.238Z,7.82
2023-03-13T21:36:20.969Z,6.70
2023-03-13T21:38:49.177Z,8.82
2023-03-13T21:41:18.857Z,8.48
2023-03-13T21:43:45.543Z,6.20
2023-03-13T21:46:15.483Z,10.40
2023-03-13T21:51:15.770Z,9.90
2023-03-13T21:53:44.419Z,12.32
2023-03-13T21:56:15.303Z,6.15
2023-03-13T21:58:42.516Z,8.18
2023-03-13T22:01:09.285Z,9.07
2023-03-13T22:03:35.997Z,5.88
2023-03-13T22:06:02.642Z,8.40
2023-03-13T22:08:29.227Z,10.90
2023-03-13T22:10:55.950Z,7.18
2023-03-13T22:13:22.591Z,8.25
2023-03-13T22:15:50.537Z,9.20
2023-03-13T22:18:17.429Z,5.65
2023-03-13T22:20:44.297Z,7.43
2023-03-13T22:23:12.170Z,4.47
2023-03-13T22:25:40.512Z,13.13
2023-03-13T22:28:07.422Z,7.47
2023-03-13T22:30:34.554Z,5.15
2023-03-13T22:33:01.211Z,9.85
2023-03-13T22:35:27.907Z,7.15
2023-03-13T22:37:54.560Z,9.45
2023-03-13T22:40:21.122Z,4.60
2023-03-13T22:42:47.735Z,7.57
2023-03-13T22:45:14.344Z,4.45
2023-03-13T22:47:40.977Z,3.72
2023-03-13T22:50:09.633Z,3.78
2023-03-13T22:52:36.347Z,4.68
2023-03-13T22:55:03.204Z,6.20
2023-03-13T22:57:29.902Z,6.00
2023-03-13T22:59:59.184Z,4.55
2023-03-13T23:02:27.431Z,9.20
2023-03-13T23:04:57.797Z,8.93
2023-03-13T23:07:28.380Z,9.13
2023-03-13T23:09:55.590Z,8.52
2023-03-13T23:12:24.265Z,8.80
2023-03-13T23:14:51.978Z,5.18
2023-03-13T23:17:18.834Z,8.05
2023-03-13T23:19:45.518Z,6.95
2023-03-13T23:22:17.657Z,8.60
2023-03-13T23:24:44.608Z,9.57
2023-03-13T23:27:11.265Z,8.20
2023-03-13T23:29:37.871Z,7.97
2023-03-13T23:32:04.662Z,6.18
2023-03-13T23:34:31.357Z,7.30
2023-03-13T23:36:58.219Z,7.20
2023-03-13T23:39:24.981Z,8.85
2023-03-13T23:41:51.617Z,6.45
2023-03-13T23:44:18.397Z,10.50
2023-03-13T23:46:44.966Z,6.93
2023-03-13T23:49:12.892Z,7.93
2023-03-13T23:51:39.777Z,6.10
2023-03-13T23:54:06.672Z,9.18
2023-03-13T23:56:33.704Z,13.73
2023-03-13T23:59:00.313Z,8.65
